Time;durP1;ratioP1;P1;durP2;ratioP2;P2;SDS_P1;SDS_P2;PMS_P1;PMS_P2;Temp;Humidity;BMP_temperature;BMP_pressure;BME280_temperature;BME280_humidity;BME280_pressure;Samples;Min_cycle;Max_cycle;Signal;HPM_P1;HPM_P2
2022/06/14 00:02:41;;;;;;;0.00;0.00;;;20.00;69.00;;;;;;4102297;28;20090;-72
2022/06/14 00:05:04;;;;;;;0.00;0.00;;;20.00;69.10;;;;;;4116300;28;20058;-76
2022/06/14 00:07:26;;;;;;;0.00;0.00;;;20.00;69.30;;;;;;4129096;28;20158;-74
2022/06/14 00:09:51;;;;;;;0.00;0.00;;;19.90;69.60;;;;;;4128889;28;20051;-73
2022/06/14 00:12:13;;;;;;;0.00;0.00;;;19.90;70.10;;;;;;4102264;28;20074;-72
2022/06/14 00:14:39;;;;;;;0.00;0.00;;;19.80;70.40;;;;;;4116140;28;20055;-73
2022/06/14 00:17:34;;;;;;;0.00;0.00;;;19.90;70.60;;;;;;4111155;28;20093;-72
2022/06/14 00:19:57;;;;;;;0.00;0.00;;;19.80;71.00;;;;;;4102128;28;20054;-73
2022/06/14 00:22:20;;;;;;;0.00;0.00;;;19.80;71.20;;;;;;4116331;28;20050;-73
2022/06/14 00:24:45;;;;;;;0.00;0.00;;;19.80;71.60;;;;;;4102560;28;20113;-75
2022/06/14 00:27:18;;;;;;;0.00;0.00;;;19.80;72.00;;;;;;4127726;28;20098;-75
2022/06/14 00:29:46;;;;;;;0.00;0.00;;;19.80;72.00;;;;;;4116428;28;20062;-73
2022/06/14 00:32:15;;;;;;;0.00;0.00;;;19.70;71.70;;;;;;4102216;28;20039;-74
2022/06/14 00:34:54;;;;;;;0.00;0.00;;;19.80;71.80;;;;;;4127003;28;20445;-71
2022/06/14 00:37:25;;;;;;;0.00;0.00;;;19.80;72.00;;;;;;4116062;28;20050;-74
2022/06/14 00:39:50;;;;;;;0.00;0.00;;;19.80;71.90;;;;;;4116397;28;20054;-76
2022/06/14 00:42:22;;;;;;;0.00;0.00;;;19.70;71.80;;;;;;4103304;28;20055;-74
2022/06/14 00:45:27;;;;;;;0.00;0.00;;;19.70;72.10;;;;;;4115141;28;20058;-74
2022/06/14 00:51:20;;;;;;;0.00;0.00;;;19.50;72.60;;;;;;4118195;28;20062;-73
2022/06/14 00:53:48;;;;;;;0.00;0.00;;;19.50;72.90;;;;;;4104541;28;20110;-74
2022/06/14 00:56:19;;;;;;;0.00;0.00;;;19.50;73.10;;;;;;4145399;28;20049;-78
2022/06/14 00:58:48;;;;;;;0.00;0.00;;;19.50;73.50;;;;;;4118825;28;20053;-74
2022/06/14 01:01:22;;;;;;;0.00;0.00;;;19.50;73.60;;;;;;4119072;28;20051;-72
2022/06/14 01:04:04;;;;;;;0.00;0.00;;;19.50;74.00;;;;;;4112626;28;20122;-74
2022/06/14 01:06:45;;;;;;;0.00;0.00;;;19.50;74.20;;;;;;4119159;28;20062;-75
2022/06/14 01:09:21;;;;;;;0.00;0.00;;;19.50;74.00;;;;;;4131708;28;20057;-72
2022/06/14 01:11:55;;;;;;;0.00;0.00;;;19.50;73.90;;;;;;4119626;28;20055;-73
2022/06/14 01:14:24;;;;;;;0.00;0.00;;;19.40;73.80;;;;;;4132400;28;20113;-72
2022/06/14 01:16:57;;;;;;;0.00;0.00;;;19.40;74.00;;;;;;4119084;28;20160;-74
2022/06/14 01:19:25;;;;;;;0.00;0.00;;;19.40;74.30;;;;;;4131512;28;20057;-72
2022/06/14 01:22:10;;;;;;;0.00;0.00;;;19.30;74.00;;;;;;4117998;28;20051;-73
2022/06/14 01:24:34;;;;;;;0.00;0.00;;;19.30;73.90;;;;;;4117852;28;20043;-74
2022/06/14 01:26:58;;;;;;;0.00;0.00;;;19.20;73.10;;;;;;4104809;28;20129;-72
2022/06/14 01:29:23;;;;;;;0.00;0.00;;;19.20;72.30;;;;;;4118531;28;20133;-75
2022/06/14 01:32:00;;;;;;;0.00;0.00;;;19.00;71.30;;;;;;4117843;28;20086;-73
2022/06/14 01:34:24;;;;;;;0.00;0.00;;;18.90;70.80;;;;;;4117907;28;20054;-74
2022/06/14 01:36:50;;;;;;;0.00;0.00;;;18.90;70.40;;;;;;4131139;28;20039;-72
2022/06/14 01:39:16;;;;;;;0.00;0.00;;;18.80;70.00;;;;;;4117299;28;20055;-75
2022/06/14 01:41:50;;;;;;;0.00;0.00;;;18.80;70.10;;;;;;4117695;28;20050;-74
2022/06/14 01:44:40;;;;;;;0.00;0.00;;;18.80;70.30;;;;;;4132180;28;20121;-77
2022/06/14 01:47:23;;;;;;;0.00;0.00;;;18.80;70.40;;;;;;4131019;28;20114;-73
2022/06/14 01:52:50;;;;;;;0.00;0.00;;;18.70;70.20;;;;;;4145163;28;20054;-75
2022/06/14 01:55:19;;;;;;;0.00;0.00;;;18.70;70.10;;;;;;4145163;28;20416;-73
2022/06/14 01:58:07;;;;;;;0.00;0.00;;;18.60;70.60;;;;;;4117499;28;20055;-76
2022/06/14 02:00:40;;;;;;;0.00;0.00;;;18.50;71.10;;;;;;4145527;28;20377;-73
2022/06/14 02:06:44;;;;;;;0.00;0.00;;;18.40;70.90;;;;;;4096554;28;20083;-73
2022/06/14 02:09:19;;;;;;;0.00;0.00;;;18.40;71.00;;;;;;4117853;28;20050;-73
2022/06/14 02:11:41;;;;;;;0.00;0.00;;;18.40;71.10;;;;;;4117954;28;20058;-72
2022/06/14 02:14:32;;;;;;;0.00;0.00;;;18.30;71.00;;;;;;4131571;28;20516;-75
2022/06/14 02:17:09;;;;;;;0.00;0.00;;;18.40;70.90;;;;;;4104354;28;20423;-73
2022/06/14 02:19:41;;;;;;;0.00;0.00;;;18.40;70.80;;;;;;4131257;28;20058;-73
2022/06/14 02:22:24;;;;;;;0.00;0.00;;;18.40;71.10;;;;;;4117234;28;20058;-73
2022/06/14 02:24:51;;;;;;;0.00;0.00;;;18.50;71.10;;;;;;4144622;28;20392;-73
2022/06/14 02:27:46;;;;;;;0.00;0.00;;;18.40;71.20;;;;;;4117059;28;20760;-72
2022/06/14 02:30:18;;;;;;;0.00;0.00;;;18.40;71.40;;;;;;4116707;28;20113;-75
2022/06/14 02:32:54;;;;;;;0.00;0.00;;;18.30;71.30;;;;;;4130113;28;20104;-76
2022/06/14 02:35:18;;;;;;;0.00;0.00;;;18.30;71.50;;;;;;4130007;28;20101;-71
2022/06/14 02:37:49;;;;;;;0.00;0.00;;;18.30;71.70;;;;;;4129542;28;20715;-72
2022/06/14 02:40:19;;;;;;;0.00;0.00;;;18.20;71.70;;;;;;4116213;28;20054;-73
2022/06/14 02:43:08;;;;;;;0.00;0.00;;;18.20;71.80;;;;;;4143687;28;20057;-73
2022/06/14 02:45:55;;;;;;;0.00;0.00;;;18.20;71.90;;;;;;4143332;28;20750;-74
2022/06/14 02:48:20;;;;;;;0.00;0.00;;;18.10;71.70;;;;;;4143674;28;20473;-73
2022/06/14 02:50:48;;;;;;;0.00;0.00;;;18.10;71.80;;;;;;4116903;28;20106;-74
2022/06/14 02:53:25;;;;;;;0.00;0.00;;;17.90;71.90;;;;;;4090495;28;20083;-74
2022/06/14 02:56:19;;;;;;;0.00;0.00;;;17.90;72.30;;;;;;4146949;28;20060;-73
2022/06/14 02:58:57;;;;;;;0.00;0.00;;;17.90;72.60;;;;;;4102813;28;20058;-75
2022/06/14 03:01:29;;;;;;;0.00;0.00;;;17.90;72.70;;;;;;4129506;28;20130;-74
2022/06/14 03:04:00;;;;;;;0.00;0.00;;;18.00;72.80;;;;;;4129791;28;20184;-74
2022/06/14 03:06:32;;;;;;;0.00;0.00;;;18.00;73.00;;;;;;4129839;28;20137;-71
2022/06/14 03:09:05;;;;;;;0.00;0.00;;;18.00;73.10;;;;;;4131194;28;20062;-75
2022/06/14 03:11:40;;;;;;;0.00;0.00;;;18.00;73.00;;;;;;4143093;28;20095;-73
2022/06/14 03:14:32;;;;;;;0.00;0.00;;;18.00;73.20;;;;;;4129244;28;20061;-73
2022/06/14 03:17:19;;;;;;;0.00;0.00;;;17.90;73.20;;;;;;4102845;28;20056;-73
2022/06/14 03:19:51;;;;;;;0.00;0.00;;;17.80;73.40;;;;;;4143091;28;20471;-76
2022/06/14 03:22:20;;;;;;;0.00;0.00;;;17.80;74.00;;;;;;4129235;28;20374;-74
2022/06/14 03:25:18;;;;;;;0.00;0.00;;;17.70;74.20;;;;;;4129651;28;20115;-73
2022/06/14 03:27:47;;;;;;;0.00;0.00;;;17.80;74.30;;;;;;4101008;28;20401;-74
2022/06/14 03:30:14;;;;;;;0.00;0.00;;;17.70;74.30;;;;;;4129244;28;20086;-74
2022/06/14 03:32:51;;;;;;;0.00;0.00;;;17.70;74.30;;;;;;4129272;28;20045;-74
2022/06/14 03:35:29;;;;;;;0.00;0.00;;;17.60;74.60;;;;;;4129027;28;20109;-74
2022/06/14 03:37:51;;;;;;;0.00;0.00;;;17.50;74.80;;;;;;4143041;28;20050;-77
2022/06/14 03:40:17;;;;;;;0.00;0.00;;;17.40;75.10;;;;;;4142613;28;20049;-75
2022/06/14 03:42:42;;;;;;;0.00;0.00;;;17.40;75.00;;;;;;4129208;28;20105;-75
2022/06/14 03:45:08;;;;;;;0.00;0.00;;;17.40;74.90;;;;;;4142894;28;20467;-73
2022/06/14 03:47:33;;;;;;;0.00;0.00;;;17.30;74.70;;;;;;4143146;28;20054;-76
2022/06/14 03:50:20;;;;;;;0.00;0.00;;;17.30;74.80;;;;;;4129081;28;20070;-75
2022/06/14 03:53:15;;;;;;;0.00;0.00;;;17.30;74.90;;;;;;4122883;28;20046;-74
2022/06/14 03:55:49;;;;;;;0.00;0.00;;;17.40;74.80;;;;;;4102512;28;20501;-76
2022/06/14 03:58:30;;;;;;;0.00;0.00;;;17.40;74.50;;;;;;4142663;28;20041;-74
2022/06/14 04:01:20;;;;;;;0.00;0.00;;;17.40;74.40;;;;;;4102052;28;20106;-75
2022/06/14 04:04:17;;;;;;;0.00;0.00;;;17.30;74.50;;;;;;4121988;28;20046;-74
2022/06/14 04:06:46;;;;;;;0.00;0.00;;;17.30;74.70;;;;;;4128815;28;20078;-75
2022/06/14 04:09:35;;;;;;;0.00;0.00;;;17.30;74.80;;;;;;4115513;28;20078;-75
2022/06/14 04:12:10;;;;;;;0.00;0.00;;;17.40;74.90;;;;;;4128929;28;20058;-74
2022/06/14 04:14:54;;;;;;;0.00;0.00;;;17.30;74.90;;;;;;4102176;28;20701;-73
2022/06/14 04:17:28;;;;;;;0.00;0.00;;;17.40;75.30;;;;;;4128829;28;20074;-74
2022/06/14 04:20:21;;;;;;;0.00;0.00;;;17.40;75.20;;;;;;4115956;28;20063;-72
2022/06/14 04:23:09;;;;;;;0.00;0.00;;;17.40;75.50;;;;;;4145835;28;20065;-75
2022/06/14 04:25:53;;;;;;;0.00;0.00;;;17.50;75.50;;;;;;4132334;28;20539;-73
2022/06/14 04:28:35;;;;;;;0.00;0.00;;;17.40;75.70;;;;;;4105043;28;20055;-73
2022/06/14 04:31:21;;;;;;;0.00;0.00;;;17.40;75.90;;;;;;4119221;28;20061;-73
2022/06/14 04:33:56;;;;;;;0.00;0.00;;;17.40;75.90;;;;;;4132295;28;20042;-74
2022/06/14 04:36:27;;;;;;;0.00;0.00;;;17.30;76.20;;;;;;4132172;28;20058;-73
2022/06/14 04:38:59;;;;;;;0.00;0.00;;;17.30;76.40;;;;;;4145871;28;20053;-75
2022/06/14 04:41:34;;;;;;;0.00;0.00;;;17.40;76.50;;;;;;4132583;28;20042;-75
2022/06/14 04:44:04;;;;;;;0.00;0.00;;;17.50;76.40;;;;;;4146020;28;20045;-73
2022/06/14 04:46:31;;;;;;;0.00;0.00;;;17.50;76.40;;;;;;4105360;28;20118;-75
2022/06/14 04:49:24;;;;;;;0.00;0.00;;;17.50;76.70;;;;;;4145918;28;20053;-76
2022/06/14 04:52:22;;;;;;;0.00;0.00;;;17.60;76.70;;;;;;4132273;28;20054;-73
2022/06/14 04:55:02;;;;;;;0.00;0.00;;;17.70;77.20;;;;;;4116581;28;20051;-74
2022/06/14 04:57:45;;;;;;;0.00;0.00;;;17.70;77.10;;;;;;4118444;28;20537;-74
2022/06/14 05:00:14;;;;;;;0.00;0.00;;;17.70;77.10;;;;;;4132051;28;20116;-77
2022/06/14 05:02:48;;;;;;;0.00;0.00;;;17.70;77.20;;;;;;4132728;28;20136;-73
2022/06/14 05:05:26;;;;;;;0.00;0.00;;;17.50;77.80;;;;;;4132643;28;20081;-76
2022/06/14 05:08:12;;;;;;;0.00;0.00;;;17.30;78.30;;;;;;4132094;28;20108;-75
2022/06/14 05:10:40;;;;;;;0.00;0.00;;;17.30;78.70;;;;;;4105045;28;20085;-74
2022/06/14 05:13:17;;;;;;;0.00;0.00;;;17.50;78.70;;;;;;4104901;28;20342;-73
2022/06/14 05:15:42;;;;;;;0.00;0.00;;;17.60;78.40;;;;;;4145531;28;20088;-74
2022/06/14 05:18:15;;;;;;;0.00;0.00;;;17.50;78.80;;;;;;4131997;28;20058;-73
2022/06/14 05:20:41;;;;;;;0.00;0.00;;;17.60;78.10;;;;;;4145465;28;20053;-75
2022/06/14 05:23:37;;;;;;;0.00;0.00;;;17.70;77.60;;;;;;4118369;28;20054;-73
2022/06/14 05:26:19;;;;;;;0.00;0.00;;;17.80;77.70;;;;;;4131701;28;20425;-73
2022/06/14 05:28:57;;;;;;;0.00;0.00;;;17.90;77.40;;;;;;4118442;28;20505;-74
2022/06/14 05:31:34;;;;;;;0.00;0.00;;;18.00;77.30;;;;;;4131044;28;20069;-74
2022/06/14 05:34:17;;;;;;;0.00;0.00;;;18.00;77.10;;;;;;4131527;28;20453;-74
2022/06/14 05:36:52;;;;;;;0.00;0.00;;;18.00;77.30;;;;;;4131482;28;20062;-76
2022/06/14 05:39:32;;;;;;;0.00;0.00;;;18.00;76.90;;;;;;4117318;28;20113;-76
2022/06/14 05:42:22;;;;;;;0.00;0.00;;;18.10;76.90;;;;;;4131390;28;20096;-73
2022/06/14 05:44:47;;;;;;;0.00;0.00;;;18.20;77.00;;;;;;4117899;28;20049;-76
2022/06/14 05:47:25;;;;;;;0.00;0.00;;;18.30;76.40;;;;;;4117872;28;20057;-75
2022/06/14 05:49:52;;;;;;;0.00;0.00;;;18.30;76.50;;;;;;4131306;28;20110;-73
2022/06/14 05:52:31;;;;;;;0.00;0.00;;;18.30;76.60;;;;;;4104515;28;20085;-76
2022/06/14 05:55:03;;;;;;;0.00;0.00;;;18.30;76.40;;;;;;4090603;29;20546;-74
2022/06/14 05:57:33;;;;;;;0.00;0.00;;;18.40;76.40;;;;;;4075347;29;20079;-75
2022/06/14 06:00:16;;;;;;;0.00;0.00;;;18.50;76.00;;;;;;4100992;29;20174;-74
2022/06/14 06:03:00;;;;;;;0.00;0.00;;;18.40;76.30;;;;;;4088582;29;20455;-76
2022/06/14 06:05:33;;;;;;;0.00;0.00;;;18.50;76.20;;;;;;4088373;29;20103;-74
2022/06/14 06:08:14;;;;;;;0.00;0.00;;;18.60;76.20;;;;;;4088293;29;20044;-75
2022/06/14 06:10:45;;;;;;;0.00;0.00;;;18.70;76.20;;;;;;4074717;29;20048;-75
2022/06/14 06:13:23;;;;;;;0.00;0.00;;;18.60;76.20;;;;;;4088060;29;20063;-73
2022/06/14 06:16:00;;;;;;;0.00;0.00;;;18.60;75.90;;;;;;4088213;29;20077;-73
2022/06/14 06:18:25;;;;;;;0.00;0.00;;;18.70;76.30;;;;;;4114994;28;20054;-72
2022/06/14 06:21:01;;;;;;;0.00;0.00;;;18.70;76.30;;;;;;4101672;29;20114;-72
2022/06/14 06:23:26;;;;;;;0.00;0.00;;;18.80;76.30;;;;;;4115141;28;20072;-72
2022/06/14 06:25:52;;;;;;;0.00;0.00;;;19.00;76.30;;;;;;4115236;28;20046;-69
2022/06/14 06:28:25;;;;;;;0.00;0.00;;;19.20;76.10;;;;;;4114932;28;20046;-72
2022/06/14 06:31:13;;;;;;;0.00;0.00;;;19.40;75.60;;;;;;4114618;28;20050;-73
2022/06/14 06:33:40;;;;;;;0.00;0.00;;;19.50;74.80;;;;;;4114743;28;20057;-72
2022/06/14 06:36:33;;;;;;;0.00;0.00;;;19.60;74.00;;;;;;4087994;29;20083;-74
2022/06/14 06:39:19;;;;;;;0.00;0.00;;;19.50;74.00;;;;;;4100809;29;20056;-71
2022/06/14 06:41:50;;;;;;;0.00;0.00;;;19.30;74.00;;;;;;4074706;29;20044;-73
2022/06/14 06:44:45;;;;;;;0.00;0.00;;;19.40;74.90;;;;;;4114705;28;20113;-72
2022/06/14 06:47:10;;;;;;;0.00;0.00;;;19.60;75.50;;;;;;4049813;29;20096;-71
2022/06/14 06:49:45;;;;;;;0.00;0.00;;;19.60;75.20;;;;;;4071951;29;20056;-72
2022/06/14 06:52:14;;;;;;;0.00;0.00;;;19.80;75.30;;;;;;4068081;29;20490;-72
2022/06/14 06:54:43;;;;;;;0.00;0.00;;;19.80;75.20;;;;;;4091260;29;20066;-72
2022/06/14 06:57:19;;;;;;;0.00;0.00;;;19.90;75.00;;;;;;4097662;29;20061;-72
2022/06/14 06:59:53;;;;;;;0.00;0.00;;;19.90;74.60;;;;;;4114463;28;20043;-73
2022/06/14 07:02:36;;;;;;;0.00;0.00;;;20.00;75.50;;;;;;4097824;29;20065;-64
2022/06/14 07:05:06;;;;;;;0.00;0.00;;;19.90;75.30;;;;;;4114475;28;20548;-66
2022/06/14 07:07:56;;;;;;;0.00;0.00;;;19.90;75.30;;;;;;4127014;28;20046;-68
2022/06/14 07:10:24;;;;;;;0.00;0.00;;;19.70;75.40;;;;;;4100597;28;20047;-62
2022/06/14 07:13:05;;;;;;;0.00;0.00;;;19.80;75.70;;;;;;4116308;28;20520;-62
2022/06/14 07:15:34;;;;;;;0.00;0.00;;;20.10;75.40;;;;;;4128705;28;20108;-61
2022/06/14 07:18:10;;;;;;;0.00;0.00;;;20.30;74.70;;;;;;4129734;28;20059;-64
2022/06/14 07:20:38;;;;;;;0.00;0.00;;;20.40;74.10;;;;;;4116520;28;20558;-64
2022/06/14 07:23:03;;;;;;;0.00;0.00;;;20.30;75.30;;;;;;4089451;28;20211;-61
2022/06/14 07:25:37;;;;;;;0.00;0.00;;;20.50;74.90;;;;;;4102808;28;20054;-58
2022/06/14 07:28:10;;;;;;;0.00;0.00;;;21.40;73.60;;;;;;4116550;28;20159;-60
2022/06/14 07:30:47;;;;;;;0.00;0.00;;;22.50;71.20;;;;;;4116285;28;20057;-60
2022/06/14 07:33:13;;;;;;;0.00;0.00;;;23.30;69.40;;;;;;4116146;28;20457;-61
2022/06/14 07:35:52;;;;;;;0.00;0.00;;;23.90;68.20;;;;;;4129570;28;20097;-61
2022/06/14 07:38:25;;;;;;;0.00;0.00;;;24.30;67.30;;;;;;4103404;28;20117;-63
2022/06/14 07:41:14;;;;;;;0.00;0.00;;;24.60;66.60;;;;;;4102629;28;20110;-62
2022/06/14 07:43:59;;;;;;;0.00;0.00;;;24.90;66.10;;;;;;4129673;28;20089;-61
2022/06/14 07:46:40;;;;;;;0.00;0.00;;;25.10;65.70;;;;;;4108614;28;20046;-61
2022/06/14 07:49:17;;;;;;;0.00;0.00;;;25.30;65.40;;;;;;4102657;28;20082;-60
2022/06/14 07:52:07;;;;;;;0.00;0.00;;;25.40;65.20;;;;;;4089418;28;20060;-62
2022/06/14 07:54:39;;;;;;;0.00;0.00;;;25.50;64.80;;;;;;4102596;28;20066;-61
2022/06/14 07:57:11;;;;;;;0.00;0.00;;;25.60;64.70;;;;;;4134690;28;20047;-61
2022/06/14 07:59:43;;;;;;;0.00;0.00;;;25.70;64.50;;;;;;4121373;28;20058;-62
2022/06/14 08:02:20;;;;;;;0.00;0.00;;;25.80;64.40;;;;;;4121564;28;20062;-62
2022/06/14 08:04:55;;;;;;;0.00;0.00;;;25.80;64.80;;;;;;4108241;28;20051;-61
2022/06/14 08:07:26;;;;;;;0.00;0.00;;;25.90;64.10;;;;;;4109478;28;20470;-59
2022/06/14 08:09:56;;;;;;;0.00;0.00;;;25.90;64.10;;;;;;4091928;29;20051;-65
2022/06/14 08:12:43;;;;;;;0.00;0.00;;;26.00;64.40;;;;;;4103072;28;20058;-62
2022/06/14 08:15:07;;;;;;;0.00;0.00;;;26.00;63.70;;;;;;4105361;29;20747;-63
2022/06/14 08:17:51;;;;;;;0.00;0.00;;;25.90;62.70;;;;;;4091851;29;20063;-64
2022/06/14 08:20:48;;;;;;;0.00;0.00;;;25.90;62.00;;;;;;4105392;28;20047;-64
2022/06/14 08:23:25;;;;;;;0.00;0.00;;;25.90;61.70;;;;;;4091844;29;20473;-63
2022/06/14 08:25:52;;;;;;;0.00;0.00;;;25.80;61.30;;;;;;4104886;29;20047;-64
2022/06/14 08:28:47;;;;;;;0.00;0.00;;;25.80;60.90;;;;;;4102473;28;20047;-64
2022/06/14 08:31:17;;;;;;;0.00;0.00;;;25.80;60.90;;;;;;4089378;29;20059;-61
2022/06/14 08:34:07;;;;;;;0.00;0.00;;;25.80;61.10;;;;;;4105333;29;20343;-62
2022/06/14 08:36:43;;;;;;;0.00;0.00;;;25.90;61.40;;;;;;4087357;28;20067;-62
2022/06/14 08:39:11;;;;;;;0.00;0.00;;;26.00;61.40;;;;;;4091822;29;20501;-62
2022/06/14 08:41:41;;;;;;;0.00;0.00;;;26.00;61.50;;;;;;4078621;29;20592;-63
2022/06/14 08:44:27;;;;;;;0.00;0.00;;;26.00;61.50;;;;;;4105128;28;20541;-63
2022/06/14 08:47:07;;;;;;;0.00;0.00;;;26.10;61.50;;;;;;4091337;28;20135;-63
2022/06/14 08:49:51;;;;;;;0.00;0.00;;;26.10;61.40;;;;;;4104747;28;20066;-63
2022/06/14 08:52:32;;;;;;;0.00;0.00;;;26.10;61.80;;;;;;4105004;28;20438;-62
2022/06/14 08:55:16;;;;;;;0.00;0.00;;;26.10;61.20;;;;;;4091229;29;20062;-62
2022/06/14 08:57:50;;;;;;;0.00;0.00;;;26.20;61.30;;;;;;4083899;29;20053;-63
2022/06/14 09:00:48;;;;;;;0.00;0.00;;;26.20;61.30;;;;;;4101919;29;20054;-64
2022/06/14 09:03:33;;;;;;;0.00;0.00;;;26.20;61.20;;;;;;4104835;29;20106;-62
2022/06/14 09:06:16;;;;;;;0.00;0.00;;;26.20;61.20;;;;;;4104276;28;20106;-63
2022/06/14 09:09:07;;;;;;;0.00;0.00;;;26.20;61.20;;;;;;4102784;29;20062;-63
2022/06/14 09:11:46;;;;;;;0.00;0.00;;;26.30;61.30;;;;;;4088931;29;20106;-64
2022/06/14 09:14:26;;;;;;;0.00;0.00;;;26.30;61.30;;;;;;4102242;28;20287;-61
2022/06/14 09:17:20;;;;;;;0.00;0.00;;;26.30;61.30;;;;;;4089053;29;20052;-62
2022/06/14 09:20:14;;;;;;;0.00;0.00;;;26.30;61.20;;;;;;4097693;29;20055;-64
2022/06/14 09:23:08;;;;;;;0.00;0.00;;;26.30;61.40;;;;;;4102172;29;20078;-62
2022/06/14 09:26:18;;;;;;;0.00;0.00;;;26.30;61.50;;;;;;4088471;29;20111;-62
2022/06/14 09:29:21;;;;;;;0.00;0.00;;;26.40;61.50;;;;;;4068454;29;20119;-63
2022/06/14 09:31:58;;;;;;;0.00;0.00;;;26.40;61.40;;;;;;4081756;29;20052;-63
2022/06/14 09:34:34;;;;;;;0.00;0.00;;;26.40;61.50;;;;;;4086367;29;20088;-63
2022/06/14 09:37:04;;;;;;;0.00;0.00;;;26.40;61.50;;;;;;4088239;28;20070;-62
2022/06/14 09:39:45;;;;;;;0.00;0.00;;;26.40;61.60;;;;;;4117463;28;20065;-62
2022/06/14 09:42:34;;;;;;;0.00;0.00;;;26.40;61.50;;;;;;4115482;28;20496;-61
2022/06/14 09:45:06;;;;;;;0.00;0.00;;;26.40;61.50;;;;;;4088601;29;20063;-59
2022/06/14 09:47:55;;;;;;;0.00;0.00;;;26.50;61.80;;;;;;4115150;28;20054;-60
2022/06/14 09:50:54;;;;;;;0.00;0.00;;;26.50;61.90;;;;;;4112663;28;20054;-60
2022/06/14 09:53:28;;;;;;;0.00;0.00;;;26.50;62.00;;;;;;4085479;29;20447;-61
2022/06/14 09:56:16;;;;;;;0.00;0.00;;;26.50;62.00;;;;;;4101879;29;20050;-61
2022/06/14 09:58:59;;;;;;;0.00;0.00;;;26.50;62.00;;;;;;4101443;29;20545;-61
2022/06/14 10:01:33;;;;;;;0.00;0.00;;;26.50;62.10;;;;;;4114974;28;20047;-62
2022/06/14 10:04:08;;;;;;;0.00;0.00;;;26.60;62.90;;;;;;4101467;29;20066;-62
2022/06/14 10:06:56;;;;;;;0.00;0.00;;;26.50;62.30;;;;;;4101471;29;20043;-60
2022/06/14 10:09:36;;;;;;;0.00;0.00;;;26.60;62.30;;;;;;4101310;29;20051;-61
2022/06/14 10:12:07;;;;;;;0.00;0.00;;;26.60;62.50;;;;;;4109903;28;20051;-61
2022/06/14 10:14:44;;;;;;;0.00;0.00;;;26.60;62.60;;;;;;4098756;28;20122;-61
2022/06/14 10:17:31;;;;;;;0.00;0.00;;;26.60;62.50;;;;;;4097540;29;20497;-60
2022/06/14 10:20:17;;;;;;;0.00;0.00;;;26.60;62.40;;;;;;4087853;29;20060;-61
2022/06/14 10:23:01;;;;;;;0.00;0.00;;;26.60;62.40;;;;;;4098928;29;20075;-61
2022/06/14 10:25:32;;;;;;;0.00;0.00;;;26.60;62.30;;;;;;4101126;29;20051;-63
2022/06/14 10:28:14;;;;;;;0.00;0.00;;;26.60;62.40;;;;;;4101000;29;20387;-63
2022/06/14 10:30:48;;;;;;;0.00;0.00;;;26.60;62.40;;;;;;4101326;28;20079;-60
2022/06/14 10:33:24;;;;;;;0.00;0.00;;;26.60;62.30;;;;;;4097932;29;20074;-61
2022/06/14 10:35:50;;;;;;;0.00;0.00;;;26.60;62.30;;;;;;4101010;29;20517;-59
2022/06/14 10:38:12;;;;;;;0.00;0.00;;;26.60;62.40;;;;;;4100851;29;20039;-59
2022/06/14 10:40:41;;;;;;;0.00;0.00;;;26.60;62.40;;;;;;4100739;29;20043;-62
2022/06/14 10:43:45;;;;;;;0.00;0.00;;;26.60;62.40;;;;;;4100889;29;20051;-59
2022/06/14 10:46:26;;;;;;;0.00;0.00;;;26.60;62.20;;;;;;4100895;29;20089;-64
2022/06/14 10:49:18;;;;;;;0.00;0.00;;;26.60;62.20;;;;;;4100853;29;20130;-60
2022/06/14 10:51:46;;;;;;;0.00;0.00;;;26.60;62.20;;;;;;4114711;28;20093;-60
2022/06/14 10:54:20;;;;;;;0.00;0.00;;;26.60;62.20;;;;;;4105763;28;20074;-60
2022/06/14 10:56:56;;;;;;;0.00;0.00;;;26.50;62.10;;;;;;4114379;28;20109;-60
2022/06/14 10:59:36;;;;;;;0.00;0.00;;;26.60;62.10;;;;;;4087218;29;20083;-62
